Time;durP1;ratioP1;P1;durP2;ratioP2;P2;SDS_P1;SDS_P2;PMS_P1;PMS_P2;Temp;Humidity;BMP_temperature;BMP_pressure;BME280_temperature;BME280_humidity;BME280_pressure;Samples;Min_cycle;Max_cycle;Signal;HPM_P1;HPM_P2
2023/01/09 08:12:53;;;;;;;750.60;703.58;;;21.90;75.00;;;;;;5536397;23;20261;-82
2023/01/09 08:15:21;;;;;;;738.08;684.97;;;22.10;74.80;;;;;;4960037;28;20820;-85
2023/01/09 08:17:48;;;;;;;694.03;651.45;;;22.50;73.80;;;;;;4969569;28;20213;-84
2023/01/09 08:20:17;;;;;;;711.80;671.53;;;22.80;72.70;;;;;;4989222;28;20665;-87
2023/01/09 08:22:48;;;;;;;564.35;536.33;;;23.10;71.90;;;;;;4974528;28;20211;-85
2023/01/09 08:25:15;;;;;;;540.65;515.65;;;23.40;71.80;;;;;;4970221;28;20616;-85
2023/01/09 08:27:42;;;;;;;582.40;554.03;;;23.70;70.30;;;;;;4980589;28;20680;-84
2023/01/09 08:30:12;;;;;;;500.60;477.70;;;23.90;69.90;;;;;;4976688;28;20665;-87
2023/01/09 08:32:40;;;;;;;568.45;541.10;;;24.00;69.50;;;;;;4973405;28;20200;-86
2023/01/09 08:35:08;;;;;;;685.58;646.65;;;24.20;68.90;;;;;;4975963;28;20213;-82
2023/01/09 08:37:35;;;;;;;619.30;587.47;;;24.30;68.50;;;;;;4970671;28;20508;-84
2023/01/09 08:40:02;;;;;;;585.05;556.42;;;24.30;68.40;;;;;;4957737;28;20238;-82
2023/01/09 08:47:59;;;;;;;452.75;433.98;;;24.30;67.70;;;;;;4969478;28;20305;-84
2023/01/09 08:50:26;;;;;;;440.83;423.00;;;24.30;68.40;;;;;;4962373;28;20199;-82
2023/01/09 08:52:53;;;;;;;441.10;423.35;;;24.50;67.40;;;;;;4965025;28;20955;-83
2023/01/09 08:55:19;;;;;;;440.20;422.23;;;24.60;66.90;;;;;;4969703;28;20314;-82
2023/01/09 08:57:50;;;;;;;517.83;494.92;;;24.60;66.70;;;;;;4964126;28;20465;-82
2023/01/09 09:00:20;;;;;;;632.70;600.42;;;24.60;66.70;;;;;;4969042;28;20642;-82
2023/01/09 09:02:51;;;;;;;704.97;666.05;;;24.60;66.40;;;;;;4970807;28;20205;-82
2023/01/09 09:05:18;;;;;;;682.72;644.95;;;24.60;66.30;;;;;;4979799;28;20207;-81
2023/01/09 09:07:47;;;;;;;787.15;735.08;;;24.70;66.20;;;;;;4969526;28;20205;-82
2023/01/09 09:10:15;;;;;;;702.93;664.13;;;24.70;65.90;;;;;;4972484;28;20333;-82
2023/01/09 09:12:42;;;;;;;570.27;542.80;;;24.80;65.90;;;;;;4970847;28;20917;-82
2023/01/09 09:15:14;;;;;;;575.37;548.07;;;24.70;66.70;;;;;;4957494;28;20472;-82
2023/01/09 09:17:43;;;;;;;407.15;391.23;;;24.70;65.80;;;;;;4964081;28;20464;-84
2023/01/09 09:20:11;;;;;;;377.77;363.70;;;24.70;65.90;;;;;;4971310;28;20271;-84
2023/01/09 09:22:38;;;;;;;396.13;380.93;;;24.60;65.80;;;;;;4971160;28;20959;-84
2023/01/09 09:25:05;;;;;;;392.80;377.63;;;24.70;65.80;;;;;;4966383;28;20474;-81
2023/01/09 09:27:32;;;;;;;408.63;392.97;;;24.70;65.80;;;;;;4973491;28;20523;-82
2023/01/09 09:29:59;;;;;;;381.30;366.40;;;24.70;65.60;;;;;;4963547;28;20995;-83
2023/01/09 09:32:26;;;;;;;376.70;362.23;;;24.70;66.40;;;;;;4970347;28;20459;-81
2023/01/09 09:34:56;;;;;;;417.92;401.75;;;24.70;65.40;;;;;;4977743;28;20459;-80
2023/01/09 09:37:23;;;;;;;446.85;428.95;;;24.70;65.40;;;;;;4972216;28;20695;-82
2023/01/09 09:39:49;;;;;;;649.10;615.20;;;24.80;65.60;;;;;;4968132;28;20295;-83
2023/01/09 09:45:35;;;;;;;350.63;337.73;;;24.70;65.40;;;;;;4965276;28;20446;-82
2023/01/09 09:48:20;;;;;;;579.15;551.85;;;24.70;65.30;;;;;;4960417;28;20470;-81
2023/01/09 09:51:20;;;;;;;648.20;613.10;;;24.60;65.60;;;;;;4958480;28;20205;-82
2023/01/09 09:53:54;;;;;;;509.17;487.08;;;24.50;65.60;;;;;;4964883;28;20478;-91
2023/01/09 09:56:23;;;;;;;384.23;369.43;;;24.30;66.50;;;;;;4976442;28;20630;-88
2023/01/09 09:58:53;;;;;;;380.83;366.60;;;24.40;66.50;;;;;;4978814;28;20831;-90
2023/01/09 10:01:24;;;;;;;379.83;365.63;;;24.50;66.40;;;;;;4963384;28;20458;-89
2023/01/09 10:03:53;;;;;;;372.43;358.53;;;24.50;67.30;;;;;;4965851;28;20467;-89
2023/01/09 10:06:28;;;;;;;389.30;374.57;;;24.60;66.40;;;;;;4968654;28;20469;-88
2023/01/09 10:09:01;;;;;;;382.47;368.13;;;24.50;66.20;;;;;;4982147;28;20556;-83
2023/01/09 10:11:37;;;;;;;389.20;374.40;;;24.50;66.20;;;;;;4970641;28;20465;-88
2023/01/09 10:14:06;;;;;;;381.23;367.08;;;24.30;66.30;;;;;;4973277;28;20489;-89
2023/01/09 10:16:54;;;;;;;409.40;393.67;;;24.20;66.60;;;;;;4977831;28;20300;-84
2023/01/09 10:19:37;;;;;;;430.30;413.37;;;24.20;67.00;;;;;;4981494;28;20477;-86
2023/01/09 10:22:13;;;;;;;447.20;429.40;;;24.10;68.00;;;;;;4980845;28;20465;-89
2023/01/09 10:25:08;;;;;;;497.27;476.00;;;24.00;67.50;;;;;;4975074;28;20539;-90
2023/01/09 10:27:53;;;;;;;529.43;505.63;;;24.00;68.00;;;;;;4973810;28;20835;-91
2023/01/09 10:30:34;;;;;;;649.00;611.40;;;24.30;67.50;;;;;;4983913;28;20464;-88
2023/01/09 10:36:19;;;;;;;502.50;480.53;;;24.70;66.40;;;;;;4978850;28;20498;-48
2023/01/09 10:38:49;;;;;;;549.43;524.23;;;24.70;66.40;;;;;;4978458;28;20461;-47
2023/01/09 10:41:22;;;;;;;611.27;581.00;;;24.70;66.50;;;;;;4987129;28;20471;-42
2023/01/09 10:43:54;;;;;;;726.40;685.43;;;24.50;66.20;;;;;;4981616;28;20516;-46
2023/01/09 10:46:25;;;;;;;399.20;383.67;;;24.70;65.40;;;;;;4982509;28;20526;-44
2023/01/09 10:48:58;;;;;;;392.63;377.43;;;24.70;65.30;;;;;;4985090;28;20526;-43
2023/01/09 10:51:31;;;;;;;425.80;409.07;;;24.60;65.90;;;;;;4983752;28;20946;-45
2023/01/09 10:53:58;;;;;;;442.83;424.67;;;24.60;66.00;;;;;;4987357;28;20472;-43
2023/01/09 10:56:28;;;;;;;494.63;473.43;;;24.60;66.40;;;;;;4981103;28;20487;-40
2023/01/09 10:58:55;;;;;;;553.13;527.17;;;24.60;65.60;;;;;;4975448;28;20495;-40
2023/01/09 11:01:27;;;;;;;535.27;510.67;;;24.60;64.50;;;;;;4985696;28;20471;-43
2023/01/09 11:03:54;;;;;;;569.17;542.43;;;24.60;64.90;;;;;;4984423;28;20459;-44
2023/01/09 11:06:25;;;;;;;684.10;648.00;;;24.60;65.10;;;;;;4989962;28;20472;-42
2023/01/09 11:08:55;;;;;;;669.87;635.17;;;24.60;65.10;;;;;;4983889;28;20474;-43
2023/01/09 11:11:34;;;;;;;631.77;599.23;;;24.60;65.20;;;;;;4983828;28;20513;-42
2023/01/09 11:14:05;;;;;;;635.47;603.63;;;24.50;65.30;;;;;;4975035;28;20995;-42
2023/01/09 11:16:32;;;;;;;647.08;614.03;;;24.50;65.30;;;;;;4960569;28;20493;-43
2023/01/09 11:19:01;;;;;;;686.03;649.33;;;24.40;65.10;;;;;;4958470;28;20230;-49
2023/01/09 11:21:34;;;;;;;702.10;664.08;;;24.30;65.70;;;;;;4970587;28;20208;-47
2023/01/09 11:24:26;;;;;;;657.40;623.47;;;24.30;65.70;;;;;;4964303;28;20279;-46
2023/01/09 11:27:22;;;;;;;752.47;709.47;;;24.50;65.90;;;;;;4960706;28;20891;-46
2023/01/09 11:30:14;;;;;;;685.67;647.27;;;24.60;65.90;;;;;;4964799;28;20294;-51
2023/01/09 11:32:41;;;;;;;713.45;670.17;;;24.60;66.10;;;;;;4970793;28;20488;-48
2023/01/09 11:35:17;;;;;;;757.77;714.20;;;24.70;65.90;;;;;;4970203;28;20264;-46
2023/01/09 11:37:45;;;;;;;714.67;670.40;;;24.80;65.90;;;;;;4966653;28;20488;-44
2023/01/09 11:40:19;;;;;;;747.13;705.00;;;24.50;65.70;;;;;;4969952;28;20467;-46
2023/01/09 11:43:02;;;;;;;796.03;742.00;;;24.70;65.60;;;;;;4972339;28;20518;-46
2023/01/09 11:45:32;;;;;;;814.38;759.35;;;24.80;65.30;;;;;;4965663;28;20201;-47
2023/01/09 11:48:00;;;;;;;801.30;749.20;;;24.80;65.30;;;;;;4967293;28;20275;-43
2023/01/09 11:50:28;;;;;;;808.38;753.13;;;24.70;65.30;;;;;;4961402;28;20209;-43
2023/01/09 11:53:12;;;;;;;804.10;749.97;;;24.70;65.30;;;;;;4963475;28;20199;-47
2023/01/09 11:55:40;;;;;;;716.58;676.72;;;24.70;65.30;;;;;;4965932;28;20192;-48
2023/01/09 11:58:13;;;;;;;658.93;624.80;;;24.70;65.20;;;;;;4969520;28;20231;-46
2023/01/09 12:00:49;;;;;;;734.20;693.43;;;24.60;65.20;;;;;;4962091;28;21017;-49
2023/01/09 12:03:26;;;;;;;717.78;676.42;;;24.70;65.10;;;;;;4963314;28;20472;-48
2023/01/09 12:05:59;;;;;;;503.53;481.70;;;24.70;65.10;;;;;;4959858;28;20195;-47
2023/01/09 12:08:35;;;;;;;496.33;474.43;;;24.60;65.30;;;;;;4967748;28;21017;-47
2023/01/09 12:11:22;;;;;;;503.02;480.98;;;24.60;65.80;;;;;;4968555;28;20503;-47
2023/01/09 12:14:12;;;;;;;532.88;508.45;;;24.70;65.60;;;;;;4959003;28;20212;-44
2023/01/09 12:16:47;;;;;;;578.80;550.97;;;24.60;65.80;;;;;;4965054;28;20713;-45
2023/01/09 12:19:31;;;;;;;549.77;524.47;;;24.50;65.90;;;;;;4970076;28;20885;-47
2023/01/09 12:22:06;;;;;;;623.78;592.22;;;24.60;65.90;;;;;;4970140;28;20464;-47
2023/01/09 12:24:52;;;;;;;737.40;695.10;;;24.70;65.90;;;;;;4960062;28;20226;-45
2023/01/09 12:27:33;;;;;;;742.87;700.13;;;24.70;65.90;;;;;;4960355;28;20474;-45
2023/01/09 12:30:22;;;;;;;757.13;712.20;;;24.70;65.90;;;;;;4960355;28;20571;-47
2023/01/09 12:33:03;;;;;;;704.37;666.30;;;24.60;66.00;;;;;;4965473;28;20462;-47
2023/01/09 12:35:36;;;;;;;745.95;702.42;;;24.60;66.10;;;;;;4957847;28;20470;-43
2023/01/09 12:38:28;;;;;;;735.63;691.83;;;24.60;66.00;;;;;;4970186;28;20298;-43
2023/01/09 12:41:25;;;;;;;594.93;565.07;;;24.70;66.00;;;;;;4958783;28;20201;-43
2023/01/09 12:44:08;;;;;;;455.87;436.93;;;24.80;66.00;;;;;;4957769;28;20540;-44
2023/01/09 12:46:44;;;;;;;436.10;418.80;;;24.80;65.70;;;;;;4964534;28;20476;-42
2023/01/09 12:49:27;;;;;;;437.50;419.70;;;24.80;65.60;;;;;;4971454;28;20461;-42
2023/01/09 12:52:02;;;;;;;460.63;441.73;;;24.80;65.70;;;;;;4962079;28;20463;-45
2023/01/09 12:54:35;;;;;;;503.13;480.97;;;24.90;65.50;;;;;;4962007;28;20464;-42
2023/01/09 12:57:07;;;;;;;655.87;619.70;;;24.80;65.60;;;;;;4961079;28;20492;-41
2023/01/09 12:59:38;;;;;;;465.07;444.73;;;24.80;65.70;;;;;;4963884;28;20514;-41
2023/01/09 13:02:18;;;;;;;409.77;393.50;;;24.90;65.40;;;;;;4959971;28;20527;-41
2023/01/09 13:04:53;;;;;;;394.80;379.73;;;25.00;65.40;;;;;;4969178;28;20514;-43
2023/01/09 13:07:24;;;;;;;425.83;409.03;;;24.90;65.40;;;;;;4966606;28;20514;-43
2023/01/09 13:09:56;;;;;;;464.83;445.60;;;24.90;65.30;;;;;;4958939;28;20516;-40
2023/01/09 13:12:25;;;;;;;448.93;430.83;;;25.00;65.40;;;;;;4963802;28;20520;-42
2023/01/09 13:14:56;;;;;;;480.27;460.23;;;24.90;65.40;;;;;;4967349;28;20469;-42
2023/01/09 13:17:27;;;;;;;662.20;627.73;;;24.90;65.40;;;;;;4959094;28;20545;-46
2023/01/09 13:19:54;;;;;;;493.87;472.73;;;25.00;65.40;;;;;;4963291;28;20981;-47
2023/01/09 13:22:24;;;;;;;503.10;481.80;;;25.00;65.30;;;;;;4965341;28;20471;-43
2023/01/09 13:25:09;;;;;;;461.10;442.43;;;24.90;65.20;;;;;;4962466;28;20440;-42
2023/01/09 13:27:39;;;;;;;458.60;439.87;;;24.80;64.60;;;;;;4962841;28;20463;-42
2023/01/09 13:30:19;;;;;;;482.80;462.70;;;24.90;64.80;;;;;;4958803;28;20834;-43
2023/01/09 13:32:58;;;;;;;502.10;479.93;;;24.90;64.90;;;;;;4962106;28;20568;-43
2023/01/09 13:35:25;;;;;;;504.07;481.97;;;24.90;65.00;;;;;;4962731;28;20466;-43
2023/01/09 13:37:53;;;;;;;486.70;466.43;;;24.80;65.10;;;;;;4963072;28;20545;-39
2023/01/09 13:40:29;;;;;;;531.53;507.90;;;24.80;65.00;;;;;;4962833;28;20896;-43
2023/01/09 13:42:58;;;;;;;619.93;589.73;;;24.80;64.90;;;;;;4963704;28;20508;-42
2023/01/09 13:45:26;;;;;;;759.10;713.20;;;24.80;64.90;;;;;;4958445;28;20866;-43
2023/01/09 13:48:28;;;;;;;778.40;730.08;;;24.80;65.00;;;;;;4963266;28;20465;-42
2023/01/09 13:51:32;;;;;;;750.47;703.77;;;24.70;65.20;;;;;;4904556;29;20696;-43
2023/01/09 13:53:59;;;;;;;561.97;535.73;;;24.70;65.30;;;;;;4963133;28;20471;-44
2023/01/09 13:56:26;;;;;;;525.10;501.90;;;24.70;66.20;;;;;;4962934;28;20450;-43
2023/01/09 13:59:01;;;;;;;500.83;479.23;;;24.70;65.40;;;;;;4961085;28;20496;-43
2023/01/09 14:01:42;;;;;;;473.47;453.63;;;24.60;65.40;;;;;;4960703;28;20454;-43
2023/01/09 14:04:44;;;;;;;472.43;452.53;;;24.50;65.70;;;;;;4957565;28;20437;-41
2023/01/09 14:07:22;;;;;;;536.50;512.17;;;24.60;65.70;;;;;;4961439;28;20470;-41
2023/01/09 14:09:54;;;;;;;557.03;531.53;;;24.80;65.50;;;;;;4960815;28;20489;-42
2023/01/09 14:12:22;;;;;;;585.00;557.37;;;24.80;66.30;;;;;;4961776;28;20611;-42
2023/01/09 14:14:51;;;;;;;751.20;708.77;;;24.90;65.50;;;;;;4961355;28;20489;-42
2023/01/09 14:17:25;;;;;;;801.23;749.10;;;24.90;65.40;;;;;;4962167;28;20481;-41
2023/01/09 14:19:57;;;;;;;793.20;741.90;;;24.90;65.60;;;;;;4963562;28;20463;-42
2023/01/09 14:22:25;;;;;;;596.37;565.93;;;24.80;64.50;;;;;;4965479;28;20546;-42
2023/01/09 14:24:55;;;;;;;564.67;537.83;;;24.80;64.70;;;;;;4965762;28;20464;-42
2023/01/09 14:28:03;;;;;;;540.77;515.73;;;24.90;64.90;;;;;;4959571;28;20499;-42
2023/01/09 14:30:32;;;;;;;681.13;642.60;;;24.90;64.80;;;;;;4969089;28;20469;-42
2023/01/09 14:33:01;;;;;;;796.45;744.45;;;24.80;64.80;;;;;;4958319;28;20661;-43
2023/01/09 14:35:41;;;;;;;820.80;767.55;;;24.80;65.00;;;;;;4958803;28;20678;-41
2023/01/09 14:38:26;;;;;;;802.80;751.10;;;24.60;65.10;;;;;;4962960;28;20225;-41
2023/01/09 14:40:59;;;;;;;724.75;685.35;;;24.60;65.10;;;;;;4954530;28;20470;-42
2023/01/09 14:43:33;;;;;;;698.97;655.80;;;24.50;65.00;;;;;;4960509;28;20629;-42
2023/01/09 14:46:11;;;;;;;743.03;698.80;;;24.60;63.50;;;;;;4964398;28;20256;-41
2023/01/09 14:48:48;;;;;;;621.25;587.67;;;24.60;63.50;;;;;;4957843;28;20469;-41
2023/01/09 14:51:18;;;;;;;619.37;588.30;;;24.70;63.40;;;;;;4961013;28;20911;-41
2023/01/09 14:53:45;;;;;;;685.60;649.53;;;24.60;63.60;;;;;;4958251;28;20471;-42
2023/01/09 14:56:26;;;;;;;783.83;737.28;;;24.50;64.20;;;;;;4953412;28;20971;-41
2023/01/09 14:59:03;;;;;;;720.08;676.58;;;24.60;64.40;;;;;;4962213;28;20219;-41
2023/01/09 15:01:31;;;;;;;666.22;628.35;;;24.80;64.10;;;;;;4957004;28;20616;-40
2023/01/09 15:04:02;;;;;;;672.90;638.00;;;24.70;63.90;;;;;;4962416;28;20668;-41
2023/01/09 15:06:35;;;;;;;648.47;615.30;;;24.70;64.30;;;;;;4967382;28;20900;-42
2023/01/09 15:09:04;;;;;;;667.87;632.67;;;25.00;63.90;;;;;;4968497;28;20476;-42
2023/01/09 15:11:33;;;;;;;543.00;518.43;;;25.10;63.50;;;;;;4969852;28;20454;-43
2023/01/09 15:14:01;;;;;;;523.17;499.90;;;25.20;63.50;;;;;;4970751;28;20884;-42
2023/01/09 15:16:29;;;;;;;537.97;513.77;;;25.20;63.50;;;;;;4958905;28;20201;-42
2023/01/09 15:18:58;;;;;;;567.13;540.80;;;25.20;63.60;;;;;;4955751;28;20483;-40
2023/01/09 15:21:29;;;;;;;711.00;672.20;;;25.10;63.80;;;;;;4962786;28;20514;-41
2023/01/09 15:24:11;;;;;;;546.03;520.90;;;24.90;64.40;;;;;;4968746;28;20475;-44
2023/01/09 15:26:38;;;;;;;553.50;528.23;;;24.70;65.00;;;;;;4967269;28;20527;-42
2023/01/09 15:29:14;;;;;;;582.97;554.80;;;24.60;65.40;;;;;;4956505;28;20471;-40
2023/01/09 15:31:42;;;;;;;681.77;644.50;;;24.50;65.60;;;;;;4948273;29;20793;-43
2023/01/09 15:34:15;;;;;;;686.97;651.37;;;24.30;65.90;;;;;;4966311;28;20533;-43
2023/01/09 15:36:42;;;;;;;698.92;660.38;;;24.20;64.50;;;;;;4966211;28;20464;-42
2023/01/09 15:39:12;;;;;;;777.30;731.63;;;24.00;65.40;;;;;;4969399;28;20247;-42
2023/01/09 15:44:26;;;;;;;737.45;693.70;;;23.60;65.00;;;;;;4972976;28;20216;-41
2023/01/09 15:46:57;;;;;;;717.13;672.05;;;23.50;65.80;;;;;;4970966;28;20197;-40
2023/01/09 15:49:24;;;;;;;753.65;708.95;;;23.60;66.20;;;;;;4960517;28;20205;-41
2023/01/09 15:51:55;;;;;;;667.73;631.13;;;23.80;66.80;;;;;;4970455;28;20250;-46
2023/01/09 15:54:28;;;;;;;770.50;723.17;;;23.80;66.20;;;;;;4967403;28;20539;-50
2023/01/09 15:57:09;;;;;;;755.97;708.45;;;23.80;66.40;;;;;;4965003;28;20196;-51
2023/01/09 15:59:37;;;;;;;663.07;628.13;;;23.90;66.50;;;;;;4955265;28;20704;-45
2023/01/09 16:04:57;;;;;;;652.00;618.17;;;23.90;66.70;;;;;;4966469;28;20952;-44
2023/01/09 16:07:23;;;;;;;537.40;512.63;;;23.90;66.70;;;;;;4969142;28;20527;-45
2023/01/09 16:09:52;;;;;;;550.83;525.80;;;23.90;66.80;;;;;;4968559;28;21048;-43
2023/01/09 16:12:21;;;;;;;590.33;561.70;;;23.90;66.90;;;;;;4967564;28;20514;-45
2023/01/09 16:14:52;;;;;;;650.77;617.43;;;23.90;67.00;;;;;;4963148;28;20543;-42
2023/01/09 16:17:22;;;;;;;565.17;538.10;;;23.90;67.00;;;;;;4959627;28;20515;-43
2023/01/09 16:19:51;;;;;;;561.20;535.07;;;23.90;67.30;;;;;;4975181;28;20815;-46
2023/01/09 16:22:21;;;;;;;533.43;509.20;;;23.90;67.50;;;;;;4964357;28;20458;-45
2023/01/09 16:24:52;;;;;;;579.90;551.83;;;23.90;67.50;;;;;;4972522;28;20596;-46
2023/01/09 16:27:26;;;;;;;554.67;528.67;;;23.80;67.60;;;;;;4961258;28;20509;-42
2023/01/09 16:29:54;;;;;;;602.67;573.37;;;23.80;67.80;;;;;;4962783;28;20468;-47
2023/01/09 16:32:23;;;;;;;730.17;689.87;;;23.80;68.00;;;;;;4963744;28;20452;-44
2023/01/09 16:34:52;;;;;;;728.67;688.83;;;23.80;67.90;;;;;;4966956;28;21008;-49
2023/01/09 16:37:19;;;;;;;750.70;708.23;;;24.00;67.50;;;;;;4961774;28;20461;-47
2023/01/09 16:40:16;;;;;;;737.55;692.58;;;24.20;67.40;;;;;;4956712;28;20467;-50
2023/01/09 16:43:03;;;;;;;624.43;592.53;;;24.40;66.80;;;;;;4956437;28;20308;-48
2023/01/09 16:45:32;;;;;;;666.30;629.00;;;24.60;66.40;;;;;;4961587;28;20463;-51
2023/01/09 16:47:59;;;;;;;474.93;455.07;;;24.60;65.90;;;;;;4965305;28;20476;-51
2023/01/09 16:50:26;;;;;;;483.70;463.07;;;24.60;65.80;;;;;;4955083;28;20472;-47
2023/01/09 16:52:53;;;;;;;479.83;459.83;;;24.60;66.00;;;;;;4950980;28;21348;-50
2023/01/09 16:55:19;;;;;;;500.40;478.93;;;24.50;66.10;;;;;;4964641;28;20462;-49
2023/01/09 16:57:47;;;;;;;534.97;510.83;;;24.50;66.10;;;;;;4963280;28;20479;-46
2023/01/09 17:00:17;;;;;;;584.43;556.83;;;24.40;66.50;;;;;;4958300;28;20470;-47
2023/01/09 17:02:43;;;;;;;791.13;741.93;;;24.30;66.00;;;;;;4960654;28;20894;-43
2023/01/09 17:05:10;;;;;;;800.83;750.78;;;24.30;66.30;;;;;;4963540;28;20490;-54
2023/01/09 17:07:37;;;;;;;581.70;551.83;;;24.10;66.90;;;;;;4964764;28;20255;-54
2023/01/09 17:10:05;;;;;;;504.53;482.77;;;24.30;67.00;;;;;;4962214;28;20558;-45
2023/01/09 17:12:32;;;;;;;514.90;491.83;;;24.30;66.70;;;;;;4958278;28;20491;-50
2023/01/09 17:15:01;;;;;;;589.87;561.57;;;24.20;66.70;;;;;;4959786;28;20474;-51
2023/01/09 17:17:28;;;;;;;684.77;649.47;;;24.00;67.60;;;;;;4964150;28;20827;-53
2023/01/09 17:19:54;;;;;;;785.00;737.50;;;24.10;67.60;;;;;;4956746;28;20558;-56
2023/01/09 17:22:21;;;;;;;724.13;682.37;;;24.00;67.50;;;;;;4964968;28;20287;-53
2023/01/09 17:30:20;;;;;;;595.83;567.03;;;24.00;68.10;;;;;;4960919;28;20504;-54
2023/01/09 17:32:47;;;;;;;701.83;662.53;;;24.00;68.10;;;;;;4962869;28;20468;-54
2023/01/09 17:35:14;;;;;;;662.00;627.17;;;24.00;68.20;;;;;;4972089;28;20972;-47
2023/01/09 17:37:42;;;;;;;606.33;576.70;;;24.00;68.30;;;;;;4965540;28;20474;-47
2023/01/09 17:40:16;;;;;;;600.07;571.27;;;23.40;69.40;;;;;;4957845;28;20472;-45
2023/01/09 17:42:43;;;;;;;673.30;638.87;;;23.20;70.60;;;;;;4962074;28;20560;-47
2023/01/09 17:45:10;;;;;;;622.43;591.13;;;23.00;71.20;;;;;;4962972;28;20516;-47
2023/01/09 17:47:38;;;;;;;623.40;591.57;;;22.90;71.30;;;;;;4964124;28;21074;-48
2023/01/09 17:50:06;;;;;;;619.77;589.03;;;22.90;71.70;;;;;;4963238;28;20459;-46
2023/01/09 17:52:33;;;;;;;669.87;635.33;;;22.80;71.80;;;;;;4957585;28;20468;-46
2023/01/09 17:55:03;;;;;;;664.40;630.03;;;22.80;72.00;;;;;;4959299;28;20476;-45
2023/01/09 17:57:30;;;;;;;674.67;639.37;;;22.80;72.00;;;;;;4963286;28;20460;-45
2023/01/09 17:59:57;;;;;;;651.50;617.13;;;22.70;72.10;;;;;;4965368;28;20513;-46
2023/01/09 18:02:24;;;;;;;629.47;597.00;;;22.80;72.20;;;;;;4968799;28;20535;-43
2023/01/09 18:04:52;;;;;;;727.20;686.83;;;22.80;72.30;;;;;;4959108;28;20517;-52
2023/01/09 18:07:19;;;;;;;702.90;663.37;;;22.70;72.20;;;;;;4965661;28;20491;-41
2023/01/09 18:09:46;;;;;;;633.57;598.17;;;22.70;72.30;;;;;;4958997;28;20551;-48
2023/01/09 18:12:12;;;;;;;724.45;680.97;;;22.70;72.30;;;;;;4961645;28;20480;-46
2023/01/09 18:14:40;;;;;;;596.15;564.63;;;22.70;72.50;;;;;;4965611;28;20277;-44
2023/01/09 18:17:07;;;;;;;537.80;512.90;;;22.70;72.40;;;;;;4961586;28;20231;-44
2023/01/09 18:19:34;;;;;;;646.47;613.40;;;22.60;72.50;;;;;;4960802;28;20487;-46
2023/01/09 18:22:02;;;;;;;725.73;683.30;;;22.60;72.50;;;;;;4966118;28;20454;-42
2023/01/09 18:24:29;;;;;;;588.60;559.53;;;22.60;72.70;;;;;;4958871;28;20461;-44
2023/01/09 18:26:56;;;;;;;712.83;673.13;;;22.60;72.90;;;;;;4966276;28;20466;-47
2023/01/09 18:29:23;;;;;;;548.70;521.17;;;22.50;72.90;;;;;;4959233;28;20481;-48
2023/01/09 18:31:50;;;;;;;518.63;495.93;;;22.40;73.20;;;;;;4964990;28;20648;-46
2023/01/09 18:34:17;;;;;;;497.73;475.85;;;22.30;73.80;;;;;;4963115;28;20537;-52
2023/01/09 18:36:43;;;;;;;504.27;482.30;;;22.20;73.60;;;;;;4967210;28;20267;-49
2023/01/09 18:39:11;;;;;;;537.40;512.50;;;22.30;74.00;;;;;;4973476;28;20273;-49
2023/01/09 18:41:38;;;;;;;603.07;573.47;;;22.20;73.90;;;;;;4963963;28;20466;-48
2023/01/09 18:44:05;;;;;;;786.00;734.75;;;22.30;74.00;;;;;;4968564;28;20464;-46
2023/01/09 18:46:31;;;;;;;756.78;709.97;;;22.40;73.80;;;;;;4969599;28;20275;-53
2023/01/09 18:48:59;;;;;;;652.78;617.40;;;22.40;73.90;;;;;;4966519;28;20241;-48
2023/01/09 18:51:28;;;;;;;644.53;611.38;;;22.50;73.40;;;;;;4968583;28;20267;-52
2023/01/09 18:53:55;;;;;;;604.67;573.28;;;22.50;73.20;;;;;;4967917;28;20222;-50
2023/01/09 18:56:23;;;;;;;536.30;511.58;;;22.60;73.00;;;;;;4972487;28;20199;-50
2023/01/09 18:58:54;;;;;;;534.33;510.33;;;22.60;72.90;;;;;;4966099;28;20222;-55
2023/01/09 19:01:20;;;;;;;542.37;517.33;;;22.60;72.90;;;;;;4969738;28;20500;-47
2023/01/09 19:03:47;;;;;;;541.20;516.17;;;22.60;72.90;;;;;;4965967;28;20522;-47
2023/01/09 19:06:14;;;;;;;605.03;574.78;;;22.60;72.90;;;;;;4965127;28;20309;-50
2023/01/09 19:08:40;;;;;;;572.53;544.85;;;22.60;73.20;;;;;;4973015;28;20203;-50
2023/01/09 19:11:07;;;;;;;616.65;585.30;;;22.60;73.40;;;;;;4971250;28;20248;-51
2023/01/09 19:13:37;;;;;;;741.92;698.97;;;22.50;73.60;;;;;;4969859;28;20217;-52
2023/01/09 19:16:05;;;;;;;596.72;568.05;;;22.50;73.70;;;;;;4971805;28;20201;-50
2023/01/09 19:18:33;;;;;;;557.07;531.07;;;22.50;73.90;;;;;;4964435;28;20225;-54
2023/01/09 19:21:01;;;;;;;541.73;517.10;;;22.40;74.00;;;;;;4963147;28;20818;-52
2023/01/09 19:23:27;;;;;;;537.30;512.83;;;22.40;74.20;;;;;;4962207;28;20461;-47
2023/01/09 19:25:56;;;;;;;571.35;544.10;;;22.40;74.40;;;;;;4968864;28;20216;-52
2023/01/09 19:28:23;;;;;;;553.55;526.97;;;22.30;74.50;;;;;;4960058;28;20686;-53
2023/01/09 19:30:56;;;;;;;567.30;540.90;;;22.30;74.70;;;;;;4963611;28;20294;-47
2023/01/09 19:33:24;;;;;;;590.65;561.92;;;22.30;74.70;;;;;;4965900;28;20229;-50
2023/01/09 19:35:51;;;;;;;578.97;551.65;;;22.30;75.60;;;;;;4962696;28;20232;-54
2023/01/09 19:38:18;;;;;;;615.80;585.30;;;22.20;74.70;;;;;;4965256;28;20203;-48
2023/01/09 19:40:45;;;;;;;596.00;566.40;;;22.20;74.90;;;;;;4963572;28;20617;-53
2023/01/09 19:43:24;;;;;;;597.80;569.05;;;22.20;75.00;;;;;;4962889;28;20820;-54
2023/01/09 19:45:51;;;;;;;624.35;593.50;;;22.20;75.00;;;;;;4968190;28;20556;-50
2023/01/09 19:48:19;;;;;;;668.97;634.00;;;22.20;75.00;;;;;;4962956;28;20203;-50
2023/01/09 19:50:46;;;;;;;663.33;627.88;;;22.20;75.00;;;;;;4957528;28;20201;-49
2023/01/09 19:53:13;;;;;;;693.30;655.17;;;22.20;74.90;;;;;;4964728;28;20212;-53
2023/01/09 19:55:39;;;;;;;777.13;727.80;;;22.30;75.00;;;;;;4967166;28;20264;-54
2023/01/09 19:58:06;;;;;;;637.00;601.50;;;22.30;75.00;;;;;;4960061;28;20616;-47
2023/01/09 20:00:33;;;;;;;665.33;626.15;;;22.30;74.90;;;;;;4959961;28;20232;-50
2023/01/09 20:03:00;;;;;;;576.90;548.60;;;22.30;74.90;;;;;;4971778;28;20689;-51
2023/01/09 20:05:28;;;;;;;482.98;462.40;;;22.30;74.80;;;;;;4964070;28;20671;-50
2023/01/09 20:07:55;;;;;;;512.50;490.13;;;22.30;75.60;;;;;;4962097;28;20206;-47
2023/01/09 20:10:21;;;;;;;509.90;487.43;;;22.30;74.80;;;;;;4967989;28;20196;-49
2023/01/09 20:12:48;;;;;;;513.38;490.75;;;22.30;74.80;;;;;;4960484;28;20485;-50
2023/01/09 20:15:15;;;;;;;506.98;484.60;;;22.30;74.80;;;;;;4962727;28;20197;-46
2023/01/09 20:17:42;;;;;;;529.75;505.50;;;22.30;74.80;;;;;;4972548;28;20212;-50
2023/01/09 20:20:10;;;;;;;566.30;539.20;;;22.30;74.80;;;;;;4969204;28;20339;-52
2023/01/09 20:22:38;;;;;;;582.25;554.70;;;22.30;74.80;;;;;;4965545;28;20949;-50
2023/01/09 20:25:09;;;;;;;586.20;557.50;;;22.30;75.60;;;;;;4961973;28;20205;-51
2023/01/09 20:27:35;;;;;;;649.10;616.17;;;22.30;74.80;;;;;;4960227;28;20194;-47
2023/01/09 20:30:02;;;;;;;695.88;657.83;;;22.30;74.90;;;;;;4967613;28;20204;-55
2023/01/09 20:32:31;;;;;;;683.88;641.30;;;22.40;75.10;;;;;;4964136;28;20197;-53
2023/01/09 20:34:57;;;;;;;788.25;738.53;;;22.30;75.00;;;;;;4958796;28;20299;-45
2023/01/09 20:37:24;;;;;;;618.07;585.63;;;22.30;75.00;;;;;;4958959;28;20212;-49
2023/01/09 20:39:52;;;;;;;595.83;566.63;;;22.30;75.10;;;;;;4963199;28;20502;-43
2023/01/09 20:45:41;;;;;;;512.20;489.52;;;22.30;75.20;;;;;;4955243;28;20235;-53
2023/01/09 20:48:09;;;;;;;524.67;500.63;;;22.30;75.20;;;;;;4966588;28;20229;-47
2023/01/09 20:50:36;;;;;;;540.63;515.92;;;22.20;75.20;;;;;;4958161;28;20224;-52
2023/01/09 20:53:03;;;;;;;541.50;516.70;;;22.20;75.30;;;;;;4968278;28;20212;-45
2023/01/09 20:55:31;;;;;;;544.58;519.30;;;22.30;75.40;;;;;;4962732;28;20569;-48
2023/01/09 20:57:58;;;;;;;567.53;540.78;;;22.20;75.30;;;;;;4967297;28;20203;-50
2023/01/09 21:00:30;;;;;;;607.97;577.42;;;22.20;75.30;;;;;;4962688;28;20226;-50
2023/01/09 21:02:57;;;;;;;637.00;603.83;;;22.30;75.40;;;;;;4963632;28;20243;-54
2023/01/09 21:05:23;;;;;;;797.13;742.60;;;22.20;75.30;;;;;;4961533;28;20210;-47
2023/01/09 21:07:51;;;;;;;805.30;749.10;;;22.20;75.40;;;;;;4963882;28;20680;-48